Time;durP1;ratioP1;P1;durP2;ratioP2;P2;SDS_P1;SDS_P2;PMS_P1;PMS_P2;Temp;Humidity;BMP_temperature;BMP_pressure;BME280_temperature;BME280_humidity;BME280_pressure;Samples;Min_cycle;Max_cycle;Signal;HPM_P1;HPM_P2
2022/05/07 00:00:23;;;;;;;18.13;13.32;;;14.40;99.90;;;;;;5032151;28;20171;-47
2022/05/07 00:02:49;;;;;;;20.15;12.23;;;14.20;99.90;;;;;;5032068;28;20560;-47
2022/05/07 00:05:15;;;;;;;22.70;13.48;;;14.10;99.90;;;;;;5032111;28;20336;-51
2022/05/07 00:07:40;;;;;;;20.02;11.90;;;14.00;99.90;;;;;;5032194;28;20585;-50
2022/05/07 00:10:06;;;;;;;19.95;12.95;;;14.10;99.90;;;;;;5032132;28;20167;-47
2022/05/07 00:12:32;;;;;;;19.40;12.50;;;14.10;99.90;;;;;;5032318;28;20183;-48
2022/05/07 00:14:57;;;;;;;23.30;13.45;;;14.20;99.90;;;;;;5032153;28;20191;-49
2022/05/07 00:20:09;;;;;;;17.35;12.07;;;14.20;99.90;;;;;;5032338;28;20596;-49
2022/05/07 00:22:34;;;;;;;19.77;12.40;;;14.10;99.90;;;;;;5032535;28;20182;-50
2022/05/07 00:25:00;;;;;;;16.17;11.63;;;14.10;99.90;;;;;;5031867;28;20198;-49
2022/05/07 00:27:25;;;;;;;18.15;11.65;;;14.10;99.90;;;;;;5031928;28;20206;-48
2022/05/07 00:29:51;;;;;;;18.38;12.43;;;14.10;99.90;;;;;;5031990;28;20171;-48
2022/05/07 00:32:17;;;;;;;22.75;13.05;;;14.00;99.90;;;;;;5031954;28;20207;-51
2022/05/07 00:34:42;;;;;;;22.88;12.20;;;14.10;99.90;;;;;;5032126;28;20317;-50
2022/05/07 00:37:08;;;;;;;21.58;12.23;;;14.00;99.90;;;;;;5032150;28;20206;-49
2022/05/07 00:39:34;;;;;;;23.85;13.15;;;14.00;99.90;;;;;;5032169;28;20628;-47
2022/05/07 00:42:06;;;;;;;21.27;12.30;;;14.00;99.90;;;;;;5031759;28;20171;-49
2022/05/07 00:44:33;;;;;;;20.35;12.27;;;14.00;99.90;;;;;;5032211;28;20205;-48
2022/05/07 00:47:38;;;;;;;19.27;11.95;;;14.00;99.90;;;;;;5032100;28;20182;-50
2022/05/07 00:52:49;;;;;;;23.75;12.23;;;13.90;99.90;;;;;;5031746;28;20352;-47
2022/05/07 00:55:15;;;;;;;25.45;13.10;;;13.90;99.90;;;;;;5031711;28;20640;-48
2022/05/07 00:57:41;;;;;;;29.20;12.10;;;13.90;99.90;;;;;;5031692;28;20187;-49
2022/05/07 01:00:09;;;;;;;29.10;12.43;;;13.90;99.90;;;;;;5031938;28;20176;-47
2022/05/07 01:02:36;;;;;;;21.27;11.82;;;13.90;99.90;;;;;;5033883;28;20581;-50
2022/05/07 01:05:02;;;;;;;23.80;11.98;;;13.90;99.90;;;;;;5035964;28;20214;-49
2022/05/07 01:07:28;;;;;;;25.20;12.07;;;13.80;99.90;;;;;;5035487;28;20206;-48
2022/05/07 01:09:54;;;;;;;27.15;12.55;;;13.80;99.90;;;;;;5035369;28;20191;-49
2022/05/07 01:12:20;;;;;;;23.33;13.20;;;13.70;99.90;;;;;;5035437;28;20250;-50
2022/05/07 01:14:46;;;;;;;19.73;12.02;;;13.70;99.90;;;;;;5035379;28;20167;-47
2022/05/07 01:17:11;;;;;;;22.92;13.13;;;13.70;99.90;;;;;;5035276;28;20176;-49
2022/05/07 01:19:37;;;;;;;22.45;12.05;;;13.80;99.90;;;;;;5035226;28;20253;-48
2022/05/07 01:22:03;;;;;;;23.08;12.85;;;13.70;99.90;;;;;;5035573;28;20172;-49
2022/05/07 01:24:28;;;;;;;26.45;12.70;;;13.60;99.90;;;;;;5035101;28;20582;-49
2022/05/07 01:26:54;;;;;;;25.92;12.57;;;13.60;99.90;;;;;;5035126;28;20174;-49
2022/05/07 01:29:19;;;;;;;22.65;12.82;;;13.60;99.90;;;;;;5035047;28;20160;-48
2022/05/07 01:31:45;;;;;;;22.65;12.07;;;13.60;99.90;;;;;;5035325;28;20504;-47
2022/05/07 01:34:11;;;;;;;34.30;12.43;;;13.60;99.90;;;;;;5034915;28;20528;-49
2022/05/07 01:36:36;;;;;;;21.70;11.93;;;13.60;99.90;;;;;;5034922;28;20207;-48
2022/05/07 01:39:02;;;;;;;23.63;13.32;;;13.50;99.90;;;;;;5035277;28;20176;-48
2022/05/07 01:41:28;;;;;;;25.25;12.27;;;13.50;99.90;;;;;;5034921;28;20156;-49
2022/05/07 01:43:53;;;;;;;31.20;11.75;;;13.40;99.90;;;;;;5034744;28;20167;-48
2022/05/07 01:49:03;;;;;;;23.42;11.93;;;13.40;99.90;;;;;;5035246;28;20228;-47
2022/05/07 01:51:29;;;;;;;25.83;12.38;;;13.30;99.90;;;;;;5034564;28;20650;-47
2022/05/07 01:53:55;;;;;;;21.33;12.82;;;13.30;99.90;;;;;;5034618;28;20168;-49
2022/05/07 01:56:21;;;;;;;25.42;12.75;;;13.30;99.90;;;;;;5034503;28;20656;-47
2022/05/07 01:58:48;;;;;;;33.30;13.38;;;13.20;99.90;;;;;;5034515;28;20179;-47
2022/05/07 02:01:14;;;;;;;26.25;13.15;;;13.10;99.90;;;;;;5034447;28;20159;-48
2022/05/07 02:03:39;;;;;;;19.65;13.63;;;13.20;99.90;;;;;;5034317;28;20223;-47
2022/05/07 02:06:05;;;;;;;22.42;13.32;;;13.20;99.90;;;;;;5034660;28;20203;-47
2022/05/07 02:08:30;;;;;;;28.08;13.75;;;13.10;99.90;;;;;;5034328;28;20175;-47
2022/05/07 02:10:59;;;;;;;28.80;14.35;;;13.20;99.90;;;;;;5034323;28;20237;-48
2022/05/07 02:13:25;;;;;;;29.00;13.48;;;13.10;99.90;;;;;;5033430;28;20171;-47
2022/05/07 02:15:50;;;;;;;27.30;14.32;;;13.20;99.90;;;;;;5034134;28;20569;-47
2022/05/07 02:18:16;;;;;;;31.58;14.25;;;13.20;99.90;;;;;;5034206;28;20167;-48
2022/05/07 02:20:41;;;;;;;23.80;13.23;;;13.20;99.90;;;;;;5034204;28;20664;-47
2022/05/07 02:23:07;;;;;;;24.98;13.65;;;13.20;99.90;;;;;;5034111;28;20209;-48
2022/05/07 02:25:32;;;;;;;27.23;13.23;;;13.20;99.90;;;;;;5032983;28;20301;-49
2022/05/07 02:27:58;;;;;;;29.02;14.20;;;13.20;99.90;;;;;;5033974;28;20172;-49
2022/05/07 02:30:23;;;;;;;29.25;14.15;;;13.20;99.90;;;;;;5034005;28;20179;-50
2022/05/07 02:32:49;;;;;;;24.05;13.82;;;13.10;99.90;;;;;;5033966;28;20176;-49
2022/05/07 02:35:14;;;;;;;25.08;14.65;;;13.20;99.90;;;;;;5033989;28;20174;-47
2022/05/07 02:37:40;;;;;;;27.40;14.27;;;13.10;99.90;;;;;;5033917;28;20255;-49
2022/05/07 02:40:07;;;;;;;21.75;13.88;;;13.00;99.90;;;;;;5034038;28;20625;-49
2022/05/07 02:42:39;;;;;;;27.38;14.25;;;13.10;99.90;;;;;;5034267;28;20309;-49
2022/05/07 02:45:09;;;;;;;20.50;13.77;;;13.10;99.90;;;;;;5034099;28;20564;-47
2022/05/07 02:47:37;;;;;;;27.35;14.40;;;13.20;99.90;;;;;;5033889;28;20640;-51
2022/05/07 02:50:04;;;;;;;26.63;13.57;;;13.10;99.90;;;;;;5033843;28;20506;-50
2022/05/07 02:52:33;;;;;;;24.17;13.48;;;13.10;99.90;;;;;;5033507;28;20644;-47
2022/05/07 02:55:05;;;;;;;26.88;14.07;;;13.10;99.90;;;;;;5033700;28;20226;-49
2022/05/07 02:57:31;;;;;;;29.52;14.02;;;13.10;99.90;;;;;;5033374;28;20671;-50
2022/05/07 02:59:57;;;;;;;26.80;14.27;;;13.10;99.90;;;;;;5033373;28;20163;-49
2022/05/07 03:02:23;;;;;;;26.30;14.00;;;13.10;99.90;;;;;;5033134;28;20254;-51
2022/05/07 03:04:49;;;;;;;26.98;14.68;;;14.10;99.90;;;;;;5033147;28;20596;-47
2022/05/07 03:07:15;;;;;;;22.88;13.05;;;12.90;99.90;;;;;;5033522;28;20175;-50
2022/05/07 03:09:41;;;;;;;25.77;14.75;;;12.90;99.90;;;;;;5033192;28;20178;-47
2022/05/07 03:12:07;;;;;;;27.30;14.65;;;13.00;99.90;;;;;;5033150;28;20535;-47
2022/05/07 03:14:33;;;;;;;25.60;13.55;;;13.00;99.90;;;;;;5033437;28;20168;-49
2022/05/07 03:16:59;;;;;;;27.13;13.88;;;13.00;99.90;;;;;;5033046;28;20168;-49
2022/05/07 03:19:25;;;;;;;19.60;13.40;;;13.00;99.90;;;;;;5032963;28;20171;-50
2022/05/07 03:21:50;;;;;;;30.15;13.23;;;13.00;99.90;;;;;;5032952;28;20182;-48
2022/05/07 03:24:16;;;;;;;24.17;13.35;;;12.90;99.90;;;;;;5032902;28;20199;-49
2022/05/07 03:26:41;;;;;;;22.55;14.02;;;12.90;99.90;;;;;;5032864;28;20172;-47
2022/05/07 03:29:07;;;;;;;21.38;13.73;;;12.90;99.90;;;;;;5033065;28;20237;-48
2022/05/07 03:31:32;;;;;;;28.58;14.35;;;12.90;99.90;;;;;;5033068;28;20199;-49
2022/05/07 03:33:58;;;;;;;22.67;13.48;;;12.80;99.90;;;;;;5032734;28;20175;-47
2022/05/07 03:36:23;;;;;;;19.00;13.57;;;12.80;99.90;;;;;;5032959;28;20179;-51
2022/05/07 03:38:49;;;;;;;23.33;13.20;;;12.80;99.90;;;;;;5032647;28;20179;-47
2022/05/07 03:41:15;;;;;;;22.48;14.13;;;12.80;99.90;;;;;;5032660;28;20558;-49
2022/05/07 03:43:40;;;;;;;21.85;13.82;;;12.70;99.90;;;;;;5032581;28;20589;-49
2022/05/07 03:46:07;;;;;;;27.67;14.20;;;12.70;99.90;;;;;;5032444;28;20710;-47
2022/05/07 03:48:32;;;;;;;25.20;14.07;;;12.70;99.90;;;;;;5032780;28;20163;-49
2022/05/07 03:50:58;;;;;;;27.95;14.45;;;12.80;99.90;;;;;;5032532;28;20183;-50
2022/05/07 03:53:30;;;;;;;29.67;14.15;;;12.70;99.90;;;;;;5032450;28;20217;-50
2022/05/07 03:56:04;;;;;;;25.10;14.00;;;12.60;99.90;;;;;;5032410;28;20258;-47
2022/05/07 03:58:29;;;;;;;24.27;13.82;;;12.60;99.90;;;;;;5032260;28;20182;-49
2022/05/07 04:00:57;;;;;;;18.58;12.73;;;12.70;99.90;;;;;;5032575;28;20645;-46
2022/05/07 04:03:23;;;;;;;33.55;14.50;;;12.80;99.90;;;;;;5032083;28;20218;-49
2022/05/07 04:05:49;;;;;;;31.13;13.52;;;12.80;99.90;;;;;;5032137;28;20215;-48
2022/05/07 04:08:17;;;;;;;22.08;13.48;;;12.80;99.90;;;;;;5032212;28;20645;-48
2022/05/07 04:10:42;;;;;;;28.90;14.13;;;12.80;99.90;;;;;;5032117;28;20641;-47
2022/05/07 04:13:10;;;;;;;21.65;13.02;;;12.80;99.90;;;;;;5032431;28;20163;-47
2022/05/07 04:15:36;;;;;;;21.05;12.32;;;12.80;99.90;;;;;;5032672;28;20175;-47
2022/05/07 04:18:03;;;;;;;23.48;13.10;;;12.70;99.90;;;;;;5032532;28;20178;-46
2022/05/07 04:20:28;;;;;;;24.98;13.65;;;12.70;99.90;;;;;;5032007;28;20163;-47
2022/05/07 04:22:54;;;;;;;18.95;11.90;;;12.70;99.90;;;;;;5031897;28;20169;-47
2022/05/07 04:25:19;;;;;;;21.65;12.48;;;12.70;99.90;;;;;;5031885;28;20207;-48
2022/05/07 04:27:45;;;;;;;24.30;12.77;;;12.70;99.90;;;;;;5032021;28;20557;-48
2022/05/07 04:30:11;;;;;;;23.42;12.70;;;12.70;99.90;;;;;;5032010;28;20218;-47
2022/05/07 04:32:36;;;;;;;23.10;13.65;;;12.80;99.90;;;;;;5032022;28;20171;-47
2022/05/07 04:35:02;;;;;;;24.67;14.23;;;12.90;99.90;;;;;;5032165;28;20171;-48
2022/05/07 04:37:28;;;;;;;20.45;12.48;;;12.90;99.90;;;;;;5033510;28;20178;-46
2022/05/07 04:39:53;;;;;;;19.88;12.63;;;13.00;99.90;;;;;;5035983;28;20167;-46
2022/05/07 04:42:19;;;;;;;26.98;13.85;;;13.00;99.90;;;;;;5035945;28;20213;-46
2022/05/07 04:44:44;;;;;;;28.95;15.15;;;13.00;99.90;;;;;;5035891;28;20655;-49
2022/05/07 04:47:10;;;;;;;28.13;12.70;;;13.00;99.90;;;;;;5035812;28;20237;-48
2022/05/07 04:49:36;;;;;;;20.80;13.05;;;13.20;99.90;;;;;;5036026;28;20174;-49
2022/05/07 04:52:05;;;;;;;20.95;12.63;;;13.20;99.90;;;;;;5036127;28;20167;-51
2022/05/07 04:54:31;;;;;;;18.75;12.40;;;13.30;99.90;;;;;;5035615;28;20192;-49
2022/05/07 04:56:56;;;;;;;24.58;13.43;;;13.30;99.90;;;;;;5035644;28;20324;-51
2022/05/07 04:59:22;;;;;;;22.08;13.32;;;13.20;99.90;;;;;;5035611;28;20215;-51
2022/05/07 05:01:47;;;;;;;24.65;13.73;;;13.20;99.90;;;;;;5035444;28;20207;-48
2022/05/07 05:04:13;;;;;;;22.17;13.02;;;13.20;99.90;;;;;;5035345;28;20225;-48
2022/05/07 05:06:39;;;;;;;20.02;12.73;;;13.20;99.90;;;;;;5035516;28;20234;-47
2022/05/07 05:09:06;;;;;;;25.63;13.57;;;13.10;99.90;;;;;;5035737;28;20175;-48
2022/05/07 05:11:32;;;;;;;19.13;13.05;;;13.20;99.90;;;;;;5035729;28;20171;-48
2022/05/07 05:13:58;;;;;;;17.92;13.35;;;13.20;99.90;;;;;;5035596;28;20550;-48
2022/05/07 05:16:23;;;;;;;24.80;14.57;;;13.40;99.90;;;;;;5034064;28;20217;-47
2022/05/07 05:18:49;;;;;;;23.88;13.23;;;13.40;99.90;;;;;;5035274;28;20172;-47
2022/05/07 05:21:15;;;;;;;23.20;13.65;;;13.50;99.90;;;;;;5035236;28;20190;-47
2022/05/07 05:23:41;;;;;;;28.35;13.40;;;13.60;99.90;;;;;;5035182;28;20171;-47
2022/05/07 05:26:07;;;;;;;23.25;14.45;;;13.70;99.90;;;;;;5034952;28;20207;-47
2022/05/07 05:28:33;;;;;;;25.77;14.10;;;13.80;99.90;;;;;;5035397;28;20163;-47
2022/05/07 05:30:59;;;;;;;22.30;13.20;;;13.80;99.90;;;;;;5035284;28;20190;-48
2022/05/07 05:33:25;;;;;;;25.80;13.55;;;14.00;99.90;;;;;;5034984;28;20199;-48
2022/05/07 05:35:51;;;;;;;26.58;13.88;;;14.10;99.90;;;;;;5035044;28;20258;-47
2022/05/07 05:38:17;;;;;;;24.63;12.82;;;14.10;99.90;;;;;;5034966;28;20233;-51
2022/05/07 05:40:42;;;;;;;23.60;13.45;;;14.30;99.90;;;;;;5034901;28;20172;-47
2022/05/07 05:43:09;;;;;;;22.33;13.75;;;14.40;99.90;;;;;;5034828;28;20167;-51
2022/05/07 05:45:34;;;;;;;22.17;14.13;;;14.50;99.90;;;;;;5035104;28;20260;-50
2022/05/07 05:48:04;;;;;;;19.08;12.77;;;14.50;99.90;;;;;;5034598;28;20175;-47
2022/05/07 05:50:30;;;;;;;18.05;12.75;;;14.70;99.90;;;;;;5034826;28;20254;-47
2022/05/07 05:52:57;;;;;;;23.52;14.43;;;14.80;99.90;;;;;;5034630;28;20164;-50
2022/05/07 05:55:22;;;;;;;26.13;14.85;;;14.90;99.90;;;;;;5034574;28;20159;-49
2022/05/07 05:57:49;;;;;;;26.15;14.27;;;14.90;99.90;;;;;;5034770;28;20194;-46
2022/05/07 06:00:15;;;;;;;28.33;14.90;;;14.90;99.90;;;;;;5034754;28;20229;-48
2022/05/07 06:02:45;;;;;;;24.95;14.18;;;14.80;99.90;;;;;;5034308;28;20209;-48
2022/05/07 06:05:11;;;;;;;26.63;15.35;;;14.80;99.90;;;;;;5034476;28;20200;-51
2022/05/07 06:07:37;;;;;;;27.17;14.73;;;15.00;99.90;;;;;;5034315;28;20652;-49
2022/05/07 06:10:04;;;;;;;23.08;15.30;;;15.10;99.90;;;;;;5034625;28;20168;-48
2022/05/07 06:12:31;;;;;;;22.70;14.27;;;15.20;99.90;;;;;;5034517;28;20195;-48
2022/05/07 06:14:57;;;;;;;27.50;14.43;;;15.40;99.90;;;;;;5034519;28;20171;-47
2022/05/07 06:17:23;;;;;;;25.25;14.65;;;15.60;99.90;;;;;;5034185;28;20580;-49
2022/05/07 06:19:49;;;;;;;22.73;13.95;;;15.70;99.90;;;;;;5034216;28;20175;-48
2022/05/07 06:22:14;;;;;;;25.52;14.60;;;15.80;99.90;;;;;;5033973;28;20179;-47
2022/05/07 06:27:33;;;;;;;24.30;13.65;;;16.10;99.90;;;;;;5034082;28;20580;-48
2022/05/07 06:30:03;;;;;;;22.65;13.73;;;16.20;99.90;;;;;;5034168;28;20253;-49
2022/05/07 06:32:36;;;;;;;25.38;13.40;;;16.40;99.90;;;;;;5033860;28;20201;-49
2022/05/07 06:35:05;;;;;;;22.05;12.40;;;16.70;99.90;;;;;;5033766;28;20167;-46
2022/05/07 06:37:32;;;;;;;20.65;12.88;;;16.90;99.90;;;;;;5033819;28;20171;-47
2022/05/07 06:39:58;;;;;;;18.67;12.45;;;17.00;99.90;;;;;;5033801;28;20156;-47
2022/05/07 06:42:24;;;;;;;18.95;12.80;;;17.20;99.90;;;;;;5033669;28;20695;-47
2022/05/07 06:44:49;;;;;;;18.75;12.52;;;17.30;99.90;;;;;;5033550;28;20199;-47
2022/05/07 06:47:16;;;;;;;16.75;12.40;;;17.50;99.90;;;;;;5033681;28;20175;-47
2022/05/07 06:49:43;;;;;;;29.30;12.25;;;17.50;99.90;;;;;;5033745;28;20168;-49
2022/05/07 06:52:08;;;;;;;19.20;12.98;;;17.50;99.90;;;;;;5033761;28;20167;-48
2022/05/07 06:54:34;;;;;;;20.48;12.52;;;17.60;99.90;;;;;;5033785;28;20179;-50
2022/05/07 06:57:00;;;;;;;16.25;11.85;;;17.50;99.90;;;;;;5033426;28;20186;-48
2022/05/07 06:59:25;;;;;;;18.52;11.23;;;17.70;99.90;;;;;;5033142;28;20633;-48
2022/05/07 07:01:51;;;;;;;19.33;12.65;;;17.70;99.90;;;;;;5033274;28;20172;-48
2022/05/07 07:04:17;;;;;;;21.10;12.35;;;17.90;99.90;;;;;;5033100;28;20243;-47
2022/05/07 07:06:42;;;;;;;13.75;11.18;;;17.80;99.90;;;;;;5033401;28;20647;-48
2022/05/07 07:09:08;;;;;;;17.08;11.75;;;17.90;99.90;;;;;;5033162;28;20174;-47
2022/05/07 07:11:34;;;;;;;22.55;12.07;;;17.80;99.90;;;;;;5033363;28;20237;-48
2022/05/07 07:14:02;;;;;;;20.58;11.90;;;17.70;99.90;;;;;;5033093;28;20641;-49
2022/05/07 07:16:28;;;;;;;21.95;12.23;;;17.90;99.90;;;;;;5033284;28;20171;-50
2022/05/07 07:18:54;;;;;;;17.65;11.70;;;18.00;99.90;;;;;;5032994;28;20160;-50
2022/05/07 07:21:19;;;;;;;21.90;11.13;;;17.80;99.90;;;;;;5032947;28;20175;-48
2022/05/07 07:23:45;;;;;;;19.17;10.05;;;17.80;99.90;;;;;;5032916;28;20159;-48
2022/05/07 07:26:10;;;;;;;19.27;10.07;;;17.80;99.90;;;;;;5033044;28;20560;-50
2022/05/07 07:28:36;;;;;;;22.17;10.35;;;17.80;99.90;;;;;;5033209;28;20159;-49
2022/05/07 07:31:02;;;;;;;17.63;9.43;;;18.10;99.90;;;;;;5033293;28;20534;-49
2022/05/07 07:33:27;;;;;;;17.15;10.93;;;18.20;99.90;;;;;;5032977;28;20655;-50
2022/05/07 07:35:53;;;;;;;18.35;11.05;;;18.50;99.90;;;;;;5032686;28;20170;-47
2022/05/07 07:38:18;;;;;;;15.07;10.00;;;18.60;99.90;;;;;;5032592;28;20167;-49
2022/05/07 07:40:49;;;;;;;15.77;10.60;;;18.80;99.90;;;;;;5032664;28;20166;-49
2022/05/07 07:43:16;;;;;;;14.18;9.98;;;18.70;99.90;;;;;;5032512;28;20544;-48
2022/05/07 07:48:25;;;;;;;17.27;11.48;;;18.90;99.90;;;;;;5032522;28;20174;-49
2022/05/07 07:50:51;;;;;;;16.35;10.18;;;18.80;99.90;;;;;;5032512;28;20166;-50
2022/05/07 07:53:17;;;;;;;15.32;11.20;;;18.90;99.90;;;;;;5032450;28;20164;-48
2022/05/07 07:55:42;;;;;;;15.05;10.55;;;19.10;99.90;;;;;;5032394;28;20290;-47
2022/05/07 07:58:09;;;;;;;13.68;10.38;;;19.30;99.90;;;;;;5032226;28;20179;-47
2022/05/07 08:00:36;;;;;;;17.70;10.77;;;19.40;99.90;;;;;;5032863;28;20163;-49
2022/05/07 08:03:05;;;;;;;15.95;10.55;;;19.40;99.90;;;;;;5032585;28;20223;-47
2022/05/07 08:05:35;;;;;;;17.10;11.77;;;19.20;99.90;;;;;;5032097;28;20191;-49
2022/05/07 08:13:36;;;;;;;15.70;11.13;;;19.40;99.90;;;;;;5031896;28;20178;-47
2022/05/07 08:16:03;;;;;;;19.48;11.60;;;19.40;99.90;;;;;;5032391;28;20167;-47
2022/05/07 08:18:29;;;;;;;15.63;11.50;;;19.60;99.90;;;;;;5032330;28;20179;-47
2022/05/07 08:20:56;;;;;;;16.00;11.43;;;19.80;99.90;;;;;;5032313;28;20175;-49
2022/05/07 08:23:22;;;;;;;16.00;11.63;;;19.80;99.90;;;;;;5032285;28;20253;-48
2022/05/07 08:25:48;;;;;;;18.83;11.50;;;19.70;99.90;;;;;;5031758;28;20267;-47
2022/05/07 08:28:15;;;;;;;14.05;10.77;;;19.90;99.90;;;;;;5032200;28;20194;-48
2022/05/07 08:30:41;;;;;;;17.27;11.35;;;20.10;99.90;;;;;;5031893;28;20224;-48
2022/05/07 08:33:06;;;;;;;19.33;11.68;;;20.30;99.90;;;;;;5032448;28;20167;-47
2022/05/07 08:35:32;;;;;;;16.88;12.05;;;20.40;99.90;;;;;;5032236;28;20167;-47
2022/05/07 08:37:58;;;;;;;17.42;12.07;;;20.40;99.90;;;;;;5032096;28;20174;-48
2022/05/07 08:40:24;;;;;;;15.85;11.20;;;20.40;99.90;;;;;;5031800;28;20230;-48
2022/05/07 08:42:50;;;;;;;14.52;10.90;;;20.40;99.90;;;;;;5032089;28;20198;-48
2022/05/07 08:45:16;;;;;;;13.35;9.98;;;20.40;99.90;;;;;;5031993;28;20202;-48
2022/05/07 08:47:43;;;;;;;15.88;10.95;;;20.40;99.90;;;;;;5031966;28;20529;-48
2022/05/07 08:50:11;;;;;;;16.17;11.32;;;20.60;99.90;;;;;;5031736;28;20168;-47
2022/05/07 08:52:42;;;;;;;15.63;10.45;;;20.60;99.90;;;;;;5031962;28;20168;-47
2022/05/07 08:55:13;;;;;;;14.15;9.52;;;20.60;99.90;;;;;;5031779;28;20258;-47
2022/05/07 08:57:40;;;;;;;18.42;10.82;;;20.90;99.90;;;;;;5030369;28;20255;-47
2022/05/07 09:00:08;;;;;;;17.05;10.93;;;20.90;99.90;;;;;;5031955;28;20687;-47
2022/05/07 09:02:42;;;;;;;17.45;9.95;;;20.80;99.90;;;;;;5031794;28;20222;-47
2022/05/07 09:05:10;;;;;;;14.18;10.82;;;20.90;99.90;;;;;;5031774;28;20247;-47
2022/05/07 09:07:36;;;;;;;13.55;10.05;;;20.80;99.90;;;;;;5031766;28;20262;-47
2022/05/07 09:10:09;;;;;;;14.18;10.18;;;20.80;99.90;;;;;;5031846;28;20164;-48
2022/05/07 09:12:34;;;;;;;10.75;8.48;;;20.90;99.90;;;;;;5032053;28;20237;-48
2022/05/07 09:15:01;;;;;;;12.63;9.20;;;21.10;99.90;;;;;;5031523;28;20168;-48
2022/05/07 09:17:27;;;;;;;16.00;8.93;;;21.30;99.90;;;;;;5031464;28;20230;-48
2022/05/07 09:19:53;;;;;;;12.35;8.65;;;21.10;99.90;;;;;;5031483;28;20633;-47
2022/05/07 09:22:19;;;;;;;13.60;9.27;;;21.00;99.90;;;;;;5030270;28;20178;-49
2022/05/07 09:24:56;;;;;;;14.88;9.43;;;21.20;99.90;;;;;;5034953;28;20163;-49
2022/05/07 09:27:22;;;;;;;13.60;8.30;;;21.50;99.90;;;;;;5035014;28;20182;-49
2022/05/07 09:30:04;;;;;;;16.02;9.13;;;21.60;99.90;;;;;;5035111;28;20159;-49
2022/05/07 09:32:37;;;;;;;14.13;9.68;;;21.80;99.90;;;;;;5034905;28;20640;-49
2022/05/07 09:38:01;;;;;;;13.65;9.60;;;21.70;99.90;;;;;;5035235;28;20225;-48
2022/05/07 09:40:30;;;;;;;15.73;9.95;;;21.30;99.90;;;;;;5035153;28;20171;-48
2022/05/07 09:42:57;;;;;;;16.42;10.43;;;21.20;99.90;;;;;;5035080;28;20190;-48
2022/05/07 09:45:26;;;;;;;16.55;9.98;;;21.10;99.90;;;;;;5034914;28;20203;-50
2022/05/07 09:47:53;;;;;;;16.92;10.43;;;21.20;99.90;;;;;;5034981;28;20175;-48
2022/05/07 09:50:24;;;;;;;14.45;9.57;;;21.50;99.90;;;;;;5034686;28;20170;-50
2022/05/07 09:58:19;;;;;;;15.60;9.40;;;21.00;99.90;;;;;;5034824;28;20310;-50
2022/05/07 10:01:14;;;;;;;13.90;8.95;;;21.20;99.90;;;;;;5034582;28;20178;-50
2022/05/07 10:04:00;;;;;;;11.50;8.60;;;21.00;99.90;;;;;;5034329;28;20230;-47
2022/05/07 10:06:59;;;;;;;14.68;8.75;;;20.90;99.90;;;;;;5034512;28;20215;-48
2022/05/07 10:10:02;;;;;;;14.00;10.10;;;20.70;99.90;;;;;;5034349;28;20225;-48
2022/05/07 10:12:28;;;;;;;17.00;11.18;;;21.10;99.90;;;;;;5034473;28;20523;-51
2022/05/07 10:15:04;;;;;;;14.88;11.52;;;21.20;99.90;;;;;;5034245;28;20176;-50
2022/05/07 10:17:30;;;;;;;15.00;11.65;;;21.20;99.90;;;;;;5034322;28;20174;-49
2022/05/07 10:20:09;;;;;;;17.30;11.48;;;21.40;99.90;;;;;;5034117;28;20543;-49
2022/05/07 10:22:35;;;;;;;18.52;12.93;;;21.40;99.90;;;;;;5034287;28;20164;-48
2022/05/07 10:25:09;;;;;;;20.17;13.30;;;21.20;99.90;;;;;;5033914;28;20191;-50
2022/05/07 10:27:37;;;;;;;21.50;13.80;;;21.30;99.90;;;;;;5034220;28;20186;-49
2022/05/07 10:30:15;;;;;;;17.52;12.70;;;21.10;99.90;;;;;;5034281;28;20171;-49
2022/05/07 10:32:57;;;;;;;19.63;12.77;;;21.30;99.90;;;;;;5033888;28;20186;-48
2022/05/07 10:35:52;;;;;;;16.50;12.52;;;21.80;99.90;;;;;;5032801;28;20171;-51
2022/05/07 10:38:27;;;;;;;15.75;12.40;;;22.00;99.90;;;;;;5033931;28;20163;-50
2022/05/07 10:41:16;;;;;;;18.70;13.70;;;22.10;99.90;;;;;;5034005;28;20172;-49
2022/05/07 10:44:04;;;;;;;18.27;13.40;;;21.60;99.90;;;;;;5033747;28;20164;-49
2022/05/07 10:46:44;;;;;;;21.13;15.00;;;21.50;99.90;;;;;;5033825;28;20222;-49
2022/05/07 10:49:11;;;;;;;21.50;14.48;;;21.40;99.90;;;;;;5033835;28;20179;-50
2022/05/07 10:51:37;;;;;;;22.33;14.27;;;21.50;99.90;;;;;;5034052;28;20175;-50
2022/05/07 10:54:21;;;;;;;17.50;13.73;;;21.40;99.90;;;;;;5034030;28;20175;-48
2022/05/07 10:56:58;;;;;;;20.00;15.13;;;22.10;99.90;;;;;;5033662;28;20225;-48
2022/05/07 10:59:27;;;;;;;19.88;15.38;;;21.80;99.90;;;;;;5033407;28;20632;-51
2022/05/07 11:02:08;;;;;;;19.23;14.43;;;21.80;99.90;;;;;;5033255;28;20305;-49
2022/05/07 11:04:43;;;;;;;17.90;14.07;;;21.80;99.90;;;;;;5033552;28;20629;-50
2022/05/07 11:07:10;;;;;;;22.17;16.38;;;22.10;99.90;;;;;;5033364;28;20305;-49
2022/05/07 11:09:37;;;;;;;18.02;14.60;;;22.00;99.90;;;;;;5033451;28;20298;-48
2022/05/07 11:12:03;;;;;;;17.50;15.13;;;22.10;99.90;;;;;;5032617;28;20167;-49
2022/05/07 11:14:32;;;;;;;16.77;13.65;;;22.40;99.90;;;;;;5030096;28;20177;-48
2022/05/07 11:16:59;;;;;;;19.27;14.75;;;22.60;99.90;;;;;;5031816;28;20179;-49
2022/05/07 11:19:31;;;;;;;17.85;14.70;;;22.40;99.90;;;;;;5032037;28;20164;-50
2022/05/07 11:21:59;;;;;;;19.45;14.90;;;22.40;99.90;;;;;;5032143;28;20195;-47
2022/05/07 11:24:25;;;;;;;16.63;13.68;;;22.60;99.90;;;;;;5031708;28;20171;-51
2022/05/07 11:26:51;;;;;;;17.17;15.10;;;23.00;99.90;;;;;;5032843;28;20234;-50
2022/05/07 11:29:18;;;;;;;20.13;17.58;;;23.00;99.90;;;;;;5032844;28;20199;-50
2022/05/07 11:31:53;;;;;;;15.32;13.73;;;23.00;99.90;;;;;;5032724;28;20171;-50
2022/05/07 11:34:47;;;;;;;17.33;13.00;;;23.30;99.90;;;;;;5032781;28;20238;-48
2022/05/07 11:37:14;;;;;;;20.20;12.80;;;23.20;99.90;;;;;;5032394;28;20209;-49
2022/05/07 11:39:50;;;;;;;19.20;12.85;;;23.40;99.90;;;;;;5032620;28;20661;-46
2022/05/07 11:42:38;;;;;;;17.73;12.88;;;23.80;99.90;;;;;;5032763;28;20190;-50
2022/05/07 11:45:29;;;;;;;18.17;13.30;;;24.00;99.90;;;;;;5041686;28;20199;-47
2022/05/07 11:48:07;;;;;;;22.00;14.85;;;24.00;99.90;;;;;;5043140;28;20164;-46
2022/05/07 11:50:40;;;;;;;20.13;12.90;;;23.80;99.90;;;;;;5042754;28;20510;-50
2022/05/07 11:53:29;;;;;;;21.80;13.60;;;24.10;99.90;;;;;;5041681;28;20544;-46
2022/05/07 11:56:11;;;;;;;24.33;14.50;;;24.30;99.90;;;;;;5041298;28;20178;-48
2022/05/07 11:58:49;;;;;;;16.83;14.75;;;24.20;99.90;;;;;;5043183;28;20177;-50
2022/05/07 12:01:28;;;;;;;24.42;16.20;;;24.20;99.90;;;;;;5042981;28;20182;-49
2022/05/07 12:03:53;;;;;;;18.60;14.05;;;24.40;99.70;;;;;;5046780;28;20217;-48
2022/05/07 12:06:28;;;;;;;19.45;14.05;;;24.50;98.10;;;;;;5050751;28;20216;-51
2022/05/07 12:08:54;;;;;;;19.77;14.05;;;24.90;98.80;;;;;;5049624;28;20307;-51
2022/05/07 12:11:20;;;;;;;19.33;13.52;;;25.20;98.70;;;;;;5051246;28;20189;-47
2022/05/07 12:13:47;;;;;;;13.95;12.40;;;24.90;97.80;;;;;;5050191;28;20179;-50
2022/05/07 12:18:57;;;;;;;14.82;13.32;;;24.70;96.40;;;;;;5046998;28;20176;-48
2022/05/07 12:29:48;;;;;;;14.70;12.95;;;24.50;96.00;;;;;;5050658;28;20178;-49
2022/05/07 12:29:49;;;;;;;17.63;13.65;;;24.90;95.20;;;;;;5031566;28;20178;-49
2022/05/07 12:32:16;;;;;;;26.70;17.15;;;25.30;95.30;;;;;;5032286;28;20236;-49
2022/05/07 12:34:41;;;;;;;25.92;17.25;;;25.20;94.10;;;;;;5031847;28;20159;-49
2022/05/07 12:37:07;;;;;;;17.90;12.90;;;25.20;93.90;;;;;;5032232;28;20181;-49
2022/05/07 12:39:32;;;;;;;17.48;10.57;;;25.20;94.70;;;;;;5031956;28;20174;-48
2022/05/07 12:42:05;;;;;;;9.80;8.73;;;25.00;94.30;;;;;;5031703;28;20175;-47
2022/05/07 12:44:31;;;;;;;13.65;9.80;;;25.10;93.20;;;;;;5031700;28;20209;-49
2022/05/07 12:46:56;;;;;;;17.65;12.35;;;25.30;92.70;;;;;;5031692;28;20198;-48
2022/05/07 12:49:22;;;;;;;15.10;12.00;;;25.20;93.20;;;;;;5031662;28;20189;-48
2022/05/07 12:51:49;;;;;;;13.05;11.32;;;25.10;92.00;;;;;;5031841;28;20178;-48
2022/05/07 12:54:14;;;;;;;13.65;10.80;;;25.20;92.50;;;;;;5031773;28;20193;-49
2022/05/07 12:56:39;;;;;;;13.27;8.82;;;25.10;91.70;;;;;;5031678;28;20170;-49
2022/05/07 12:59:05;;;;;;;14.63;10.07;;;25.40;92.00;;;;;;5034795;28;20587;-50
2022/05/07 13:01:31;;;;;;;12.07;9.68;;;25.60;92.00;;;;;;5035536;28;20787;-50
2022/05/07 13:03:56;;;;;;;9.43;8.50;;;25.60;91.80;;;;;;5035411;28;20240;-49
2022/05/07 13:06:21;;;;;;;13.60;8.88;;;25.50;91.50;;;;;;5035440;28;20202;-49
2022/05/07 13:08:47;;;;;;;14.02;10.00;;;25.40;90.30;;;;;;5035591;28;20213;-49